sensor_id;sensor_type;location;lat;lon;timestamp;P1;durP1;ratioP1;P2;durP2;ratioP2
71836;SDS011;59686;51.716;7.016;2024-01-07T00:00:08;8.40;;;6.77;;
71836;SDS011;59686;51.716;7.016;2024-01-07T00:02:34;7.53;;;6.50;;
71836;SDS011;59686;51.716;7.016;2024-01-07T00:05:01;7.90;;;7.10;;
71836;SDS011;59686;51.716;7.016;2024-01-07T00:07:27;9.07;;;7.07;;
71836;SDS011;59686;51.716;7.016;2024-01-07T00:09:53;8.50;;;6.80;;
71836;SDS011;59686;51.716;7.016;2024-01-07T00:12:19;8.47;;;7.17;;
71836;SDS011;59686;51.716;7.016;2024-01-07T00:14:44;8.57;;;6.87;;
71836;SDS011;59686;51.716;7.016;2024-01-07T00:17:10;8.33;;;6.83;;
71836;SDS011;59686;51.716;7.016;2024-01-07T00:19:36;9.17;;;6.33;;
71836;SDS011;59686;51.716;7.016;2024-01-07T00:22:02;8.07;;;6.47;;
71836;SDS011;59686;51.716;7.016;2024-01-07T00:24:28;8.73;;;7.03;;
71836;SDS011;59686;51.716;7.016;2024-01-07T00:26:55;8.40;;;7.10;;
71836;SDS011;59686;51.716;7.016;2024-01-07T00:29:21;8.43;;;6.77;;
71836;SDS011;59686;51.716;7.016;2024-01-07T00:31:46;8.87;;;6.80;;
71836;SDS011;59686;51.716;7.016;2024-01-07T00:34:14;7.70;;;6.17;;
71836;SDS011;59686;51.716;7.016;2024-01-07T00:36:40;7.37;;;6.53;;
71836;SDS011;59686;51.716;7.016;2024-01-07T00:39:05;8.87;;;7.00;;
71836;SDS011;59686;51.716;7.016;2024-01-07T00:41:31;9.00;;;6.97;;
71836;SDS011;59686;51.716;7.016;2024-01-07T00:43:57;9.53;;;7.23;;
71836;SDS011;59686;51.716;7.016;2024-01-07T00:46:23;8.87;;;6.97;;
71836;SDS011;59686;51.716;7.016;2024-01-07T00:48:48;10.20;;;7.70;;
71836;SDS011;59686;51.716;7.016;2024-01-07T00:51:15;8.00;;;6.87;;
71836;SDS011;59686;51.716;7.016;2024-01-07T00:53:41;9.27;;;7.47;;
71836;SDS011;59686;51.716;7.016;2024-01-07T00:56:06;10.33;;;8.00;;
71836;SDS011;59686;51.716;7.016;2024-01-07T00:58:32;9.73;;;7.70;;
71836;SDS011;59686;51.716;7.016;2024-01-07T01:00:58;9.30;;;7.50;;
71836;SDS011;59686;51.716;7.016;2024-01-07T01:05:54;11.23;;;8.63;;
71836;SDS011;59686;51.716;7.016;2024-01-07T01:08:20;11.07;;;8.33;;
71836;SDS011;59686;51.716;7.016;2024-01-07T01:10:46;10.73;;;8.33;;
71836;SDS011;59686;51.716;7.016;2024-01-07T01:13:11;11.57;;;8.80;;
71836;SDS011;59686;51.716;7.016;2024-01-07T01:15:37;11.13;;;8.20;;
71836;SDS011;59686;51.716;7.016;2024-01-07T01:18:03;11.40;;;8.87;;
71836;SDS011;59686;51.716;7.016;2024-01-07T01:20:29;10.53;;;8.43;;
71836;SDS011;59686;51.716;7.016;2024-01-07T01:22:54;12.20;;;8.43;;
71836;SDS011;59686;51.716;7.016;2024-01-07T01:25:20;10.30;;;8.00;;
71836;SDS011;59686;51.716;7.016;2024-01-07T01:27:46;12.43;;;8.97;;
71836;SDS011;59686;51.716;7.016;2024-01-07T01:30:12;11.67;;;9.00;;
71836;SDS011;59686;51.716;7.016;2024-01-07T01:32:38;11.60;;;9.33;;
71836;SDS011;59686;51.716;7.016;2024-01-07T01:35:05;11.60;;;9.33;;
71836;SDS011;59686;51.716;7.016;2024-01-07T01:37:31;12.67;;;9.07;;
71836;SDS011;59686;51.716;7.016;2024-01-07T01:39:59;12.27;;;8.63;;
71836;SDS011;59686;51.716;7.016;2024-01-07T01:42:25;11.93;;;8.47;;
71836;SDS011;59686;51.716;7.016;2024-01-07T01:44:50;10.97;;;9.00;;
71836;SDS011;59686;51.716;7.016;2024-01-07T01:47:17;11.13;;;8.83;;
71836;SDS011;59686;51.716;7.016;2024-01-07T01:49:43;13.93;;;9.63;;
71836;SDS011;59686;51.716;7.016;2024-01-07T01:52:11;11.90;;;9.40;;
71836;SDS011;59686;51.716;7.016;2024-01-07T01:54:38;13.93;;;9.90;;
71836;SDS011;59686;51.716;7.016;2024-01-07T01:59:35;10.17;;;8.90;;
71836;SDS011;59686;51.716;7.016;2024-01-07T02:02:01;13.17;;;9.70;;
71836;SDS011;59686;51.716;7.016;2024-01-07T02:04:28;13.23;;;10.20;;
71836;SDS011;59686;51.716;7.016;2024-01-07T02:06:54;12.73;;;9.33;;
71836;SDS011;59686;51.716;7.016;2024-01-07T02:09:19;12.00;;;9.37;;
71836;SDS011;59686;51.716;7.016;2024-01-07T02:11:59;11.57;;;9.37;;
71836;SDS011;59686;51.716;7.016;2024-01-07T02:14:26;10.83;;;8.93;;
71836;SDS011;59686;51.716;7.016;2024-01-07T02:16:51;12.33;;;9.73;;
71836;SDS011;59686;51.716;7.016;2024-01-07T02:19:17;13.23;;;8.70;;
71836;SDS011;59686;51.716;7.016;2024-01-07T02:21:45;12.00;;;9.80;;
71836;SDS011;59686;51.716;7.016;2024-01-07T02:24:17;11.60;;;9.27;;
71836;SDS011;59686;51.716;7.016;2024-01-07T02:26:43;13.07;;;8.63;;
71836;SDS011;59686;51.716;7.016;2024-01-07T02:29:08;11.70;;;9.23;;
71836;SDS011;59686;51.716;7.016;2024-01-07T02:31:34;11.80;;;8.90;;
71836;SDS011;59686;51.716;7.016;2024-01-07T02:34:00;13.20;;;9.00;;
71836;SDS011;59686;51.716;7.016;2024-01-07T02:36:26;11.77;;;9.10;;
71836;SDS011;59686;51.716;7.016;2024-01-07T02:38:51;10.77;;;8.77;;
71836;SDS011;59686;51.716;7.016;2024-01-07T02:41:17;10.67;;;8.57;;
71836;SDS011;59686;51.716;7.016;2024-01-07T02:43:43;12.80;;;9.10;;
71836;SDS011;59686;51.716;7.016;2024-01-07T02:46:09;12.87;;;9.20;;
71836;SDS011;59686;51.716;7.016;2024-01-07T02:48:34;10.93;;;8.47;;
71836;SDS011;59686;51.716;7.016;2024-01-07T02:51:00;10.00;;;8.23;;
71836;SDS011;59686;51.716;7.016;2024-01-07T02:53:28;12.13;;;8.73;;
71836;SDS011;59686;51.716;7.016;2024-01-07T02:55:54;10.03;;;8.17;;
71836;SDS011;59686;51.716;7.016;2024-01-07T02:58:19;12.37;;;8.77;;
71836;SDS011;59686;51.716;7.016;2024-01-07T03:00:45;10.23;;;7.87;;
71836;SDS011;59686;51.716;7.016;2024-01-07T03:03:11;10.47;;;8.50;;
71836;SDS011;59686;51.716;7.016;2024-01-07T03:05:37;9.83;;;7.73;;
71836;SDS011;59686;51.716;7.016;2024-01-07T03:08:02;9.70;;;7.73;;
71836;SDS011;59686;51.716;7.016;2024-01-07T03:10:28;10.80;;;8.23;;
71836;SDS011;59686;51.716;7.016;2024-01-07T03:12:54;10.33;;;7.73;;
71836;SDS011;59686;51.716;7.016;2024-01-07T03:15:19;9.77;;;7.77;;
71836;SDS011;59686;51.716;7.016;2024-01-07T03:17:45;8.83;;;7.37;;
71836;SDS011;59686;51.716;7.016;2024-01-07T03:20:11;8.80;;;7.47;;
71836;SDS011;59686;51.716;7.016;2024-01-07T03:22:37;9.00;;;7.60;;
71836;SDS011;59686;51.716;7.016;2024-01-07T03:25:02;9.47;;;7.63;;
71836;SDS011;59686;51.716;7.016;2024-01-07T03:27:28;8.90;;;7.07;;
71836;SDS011;59686;51.716;7.016;2024-01-07T03:29:54;9.97;;;7.40;;
71836;SDS011;59686;51.716;7.016;2024-01-07T03:32:20;9.37;;;7.20;;
71836;SDS011;59686;51.716;7.016;2024-01-07T03:34:45;9.43;;;7.30;;
71836;SDS011;59686;51.716;7.016;2024-01-07T03:37:11;8.83;;;6.93;;
71836;SDS011;59686;51.716;7.016;2024-01-07T03:39:37;8.83;;;7.40;;
71836;SDS011;59686;51.716;7.016;2024-01-07T03:42:02;9.07;;;7.03;;
71836;SDS011;59686;51.716;7.016;2024-01-07T03:44:30;7.67;;;6.67;;
71836;SDS011;59686;51.716;7.016;2024-01-07T03:46:56;8.90;;;7.20;;
71836;SDS011;59686;51.716;7.016;2024-01-07T03:49:22;8.47;;;7.13;;
71836;SDS011;59686;51.716;7.016;2024-01-07T03:51:48;9.03;;;7.13;;
71836;SDS011;59686;51.716;7.016;2024-01-07T03:54:13;8.43;;;7.20;;
71836;SDS011;59686;51.716;7.016;2024-01-07T03:56:39;9.43;;;7.10;;
71836;SDS011;59686;51.716;7.016;2024-01-07T03:59:05;8.07;;;7.10;;
71836;SDS011;59686;51.716;7.016;2024-01-07T04:01:31;8.87;;;7.20;;
71836;SDS011;59686;51.716;7.016;2024-01-07T04:03:57;9.43;;;6.73;;
71836;SDS011;59686;51.716;7.016;2024-01-07T04:06:22;8.20;;;7.13;;
71836;SDS011;59686;51.716;7.016;2024-01-07T04:08:48;9.17;;;7.13;;
71836;SDS011;59686;51.716;7.016;2024-01-07T04:11:14;9.80;;;7.77;;
71836;SDS011;59686;51.716;7.016;2024-01-07T04:13:39;8.63;;;6.93;;
71836;SDS011;59686;51.716;7.016;2024-01-07T04:16:05;8.27;;;6.67;;
71836;SDS011;59686;51.716;7.016;2024-01-07T04:18:31;8.80;;;6.93;;
71836;SDS011;59686;51.716;7.016;2024-01-07T04:20:56;8.53;;;6.97;;
71836;SDS011;59686;51.716;7.016;2024-01-07T04:23:22;8.20;;;6.80;;
71836;SDS011;59686;51.716;7.016;2024-01-07T04:25:48;9.00;;;6.50;;
71836;SDS011;59686;51.716;7.016;2024-01-07T04:28:13;8.33;;;6.97;;
71836;SDS011;59686;51.716;7.016;2024-01-07T04:30:39;7.63;;;6.83;;
71836;SDS011;59686;51.716;7.016;2024-01-07T04:33:05;8.17;;;6.40;;
71836;SDS011;59686;51.716;7.016;2024-01-07T04:35:30;8.20;;;6.40;;
71836;SDS011;59686;51.716;7.016;2024-01-07T04:37:56;8.03;;;6.87;;
71836;SDS011;59686;51.716;7.016;2024-01-07T04:40:22;8.80;;;6.67;;
71836;SDS011;59686;51.716;7.016;2024-01-07T04:42:47;7.77;;;6.20;;
71836;SDS011;59686;51.716;7.016;2024-01-07T04:45:13;7.17;;;6.10;;
71836;SDS011;59686;51.716;7.016;2024-01-07T04:47:39;7.63;;;6.53;;
71836;SDS011;59686;51.716;7.016;2024-01-07T04:50:05;8.93;;;6.67;;
71836;SDS011;59686;51.716;7.016;2024-01-07T04:52:31;8.43;;;6.37;;
71836;SDS011;59686;51.716;7.016;2024-01-07T04:54:56;7.10;;;6.20;;
71836;SDS011;59686;51.716;7.016;2024-01-07T04:57:22;8.83;;;6.53;;
71836;SDS011;59686;51.716;7.016;2024-01-07T04:59:48;8.70;;;6.40;;
71836;SDS011;59686;51.716;7.016;2024-01-07T05:02:15;7.97;;;6.57;;
71836;SDS011;59686;51.716;7.016;2024-01-07T05:04:41;9.00;;;6.60;;
71836;SDS011;59686;51.716;7.016;2024-01-07T05:07:07;7.73;;;6.30;;
71836;SDS011;59686;51.716;7.016;2024-01-07T05:09:33;8.67;;;6.90;;
71836;SDS011;59686;51.716;7.016;2024-01-07T05:11:59;10.10;;;7.70;;
71836;SDS011;59686;51.716;7.016;2024-01-07T05:14:26;9.10;;;6.70;;
71836;SDS011;59686;51.716;7.016;2024-01-07T05:16:53;8.07;;;6.33;;
71836;SDS011;59686;51.716;7.016;2024-01-07T05:19:19;7.90;;;6.33;;
71836;SDS011;59686;51.716;7.016;2024-01-07T05:21:45;9.10;;;7.17;;
71836;SDS011;59686;51.716;7.016;2024-01-07T05:24:11;8.43;;;6.70;;
71836;SDS011;59686;51.716;7.016;2024-01-07T05:26:41;8.93;;;6.83;;
71836;SDS011;59686;51.716;7.016;2024-01-07T05:29:15;7.97;;;6.80;;
71836;SDS011;59686;51.716;7.016;2024-01-07T05:31:40;9.57;;;7.10;;
71836;SDS011;59686;51.716;7.016;2024-01-07T05:34:06;8.33;;;7.13;;
71836;SDS011;59686;51.716;7.016;2024-01-07T05:36:32;9.93;;;7.53;;
71836;SDS011;59686;51.716;7.016;2024-01-07T05:38:58;8.00;;;6.80;;
71836;SDS011;59686;51.716;7.016;2024-01-07T05:41:23;8.20;;;6.73;;
71836;SDS011;59686;51.716;7.016;2024-01-07T05:46:23;9.33;;;7.83;;
71836;SDS011;59686;51.716;7.016;2024-01-07T05:48:49;9.13;;;7.57;;
71836;SDS011;59686;51.716;7.016;2024-01-07T05:51:15;9.37;;;7.13;;
71836;SDS011;59686;51.716;7.016;2024-01-07T05:53:41;8.87;;;7.57;;
71836;SDS011;59686;51.716;7.016;2024-01-07T05:56:07;11.23;;;8.23;;
71836;SDS011;59686;51.716;7.016;2024-01-07T05:58:33;9.90;;;7.73;;
71836;SDS011;59686;51.716;7.016;2024-01-07T06:01:00;9.20;;;7.70;;
71836;SDS011;59686;51.716;7.016;2024-01-07T06:03:26;10.00;;;8.23;;
71836;SDS011;59686;51.716;7.016;2024-01-07T06:05:52;9.97;;;7.53;;
71836;SDS011;59686;51.716;7.016;2024-01-07T06:08:18;10.40;;;8.07;;
71836;SDS011;59686;51.716;7.016;2024-01-07T06:10:49;10.23;;;8.17;;
71836;SDS011;59686;51.716;7.016;2024-01-07T06:13:15;9.37;;;7.90;;
71836;SDS011;59686;51.716;7.016;2024-01-07T06:15:41;9.73;;;7.60;;
71836;SDS011;59686;51.716;7.016;2024-01-07T06:18:06;8.97;;;7.33;;
71836;SDS011;59686;51.716;7.016;2024-01-07T06:20:32;9.90;;;7.90;;
71836;SDS011;59686;51.716;7.016;2024-01-07T06:22:58;9.80;;;8.17;;
71836;SDS011;59686;51.716;7.016;2024-01-07T06:25:23;10.13;;;8.07;;
71836;SDS011;59686;51.716;7.016;2024-01-07T06:27:51;11.27;;;8.37;;
71836;SDS011;59686;51.716;7.016;2024-01-07T06:30:17;9.50;;;7.90;;
71836;SDS011;59686;51.716;7.016;2024-01-07T06:32:44;8.50;;;7.27;;
71836;SDS011;59686;51.716;7.016;2024-01-07T06:35:10;9.33;;;7.53;;
71836;SDS011;59686;51.716;7.016;2024-01-07T06:37:36;12.40;;;7.80;;
71836;SDS011;59686;51.716;7.016;2024-01-07T06:40:02;9.13;;;6.83;;
71836;SDS011;59686;51.716;7.016;2024-01-07T06:42:28;9.00;;;7.03;;
71836;SDS011;59686;51.716;7.016;2024-01-07T06:44:54;9.60;;;7.37;;
71836;SDS011;59686;51.716;7.016;2024-01-07T06:47:20;9.83;;;7.60;;
71836;SDS011;59686;51.716;7.016;2024-01-07T06:49:45;9.77;;;7.17;;
71836;SDS011;59686;51.716;7.016;2024-01-07T06:52:11;8.67;;;6.97;;
71836;SDS011;59686;51.716;7.016;2024-01-07T06:54:37;9.50;;;7.43;;
71836;SDS011;59686;51.716;7.016;2024-01-07T06:57:06;8.20;;;6.77;;
71836;SDS011;59686;51.716;7.016;2024-01-07T06:59:32;9.07;;;7.27;;
71836;SDS011;59686;51.716;7.016;2024-01-07T07:01:57;10.77;;;7.43;;
71836;SDS011;59686;51.716;7.016;2024-01-07T07:04:23;8.30;;;6.87;;
71836;SDS011;59686;51.716;7.016;2024-01-07T07:06:49;8.50;;;7.00;;
71836;SDS011;59686;51.716;7.016;2024-01-07T07:09:14;9.03;;;7.00;;
71836;SDS011;59686;51.716;7.016;2024-01-07T07:11:40;7.50;;;6.50;;
71836;SDS011;59686;51.716;7.016;2024-01-07T07:14:08;8.23;;;6.80;;
71836;SDS011;59686;51.716;7.016;2024-01-07T07:16:34;9.47;;;7.40;;
71836;SDS011;59686;51.716;7.016;2024-01-07T07:18:59;9.27;;;7.00;;
71836;SDS011;59686;51.716;7.016;2024-01-07T07:21:25;10.13;;;7.67;;
71836;SDS011;59686;51.716;7.016;2024-01-07T07:23:52;9.43;;;6.97;;
71836;SDS011;59686;51.716;7.016;2024-01-07T07:26:18;10.43;;;7.50;;
71836;SDS011;59686;51.716;7.016;2024-01-07T07:28:43;10.07;;;7.47;;
71836;SDS011;59686;51.716;7.016;2024-01-07T07:33:40;10.53;;;7.27;;
71836;SDS011;59686;51.716;7.016;2024-01-07T07:36:06;8.70;;;6.73;;
71836;SDS011;59686;51.716;7.016;2024-01-07T07:38:32;8.83;;;7.03;;
71836;SDS011;59686;51.716;7.016;2024-01-07T07:40:59;8.67;;;6.90;;
71836;SDS011;59686;51.716;7.016;2024-01-07T07:43:25;10.73;;;7.13;;
71836;SDS011;59686;51.716;7.016;2024-01-07T07:45:54;9.47;;;7.30;;
71836;SDS011;59686;51.716;7.016;2024-01-07T07:48:20;8.57;;;7.07;;
71836;SDS011;59686;51.716;7.016;2024-01-07T07:50:46;10.13;;;7.20;;
71836;SDS011;59686;51.716;7.016;2024-01-07T07:53:11;9.67;;;7.33;;
71836;SDS011;59686;51.716;7.016;2024-01-07T07:55:37;8.10;;;6.93;;
71836;SDS011;59686;51.716;7.016;2024-01-07T07:58:04;9.43;;;7.07;;
71836;SDS011;59686;51.716;7.016;2024-01-07T08:00:29;7.97;;;6.70;;
71836;SDS011;59686;51.716;7.016;2024-01-07T08:02:55;9.37;;;7.20;;
71836;SDS011;59686;51.716;7.016;2024-01-07T08:05:24;8.27;;;6.87;;
71836;SDS011;59686;51.716;7.016;2024-01-07T08:07:50;7.73;;;6.40;;
71836;SDS011;59686;51.716;7.016;2024-01-07T08:10:15;9.10;;;7.13;;
71836;SDS011;59686;51.716;7.016;2024-01-07T08:12:41;8.33;;;7.07;;
71836;SDS011;59686;51.716;7.016;2024-01-07T08:15:07;7.83;;;6.47;;
71836;SDS011;59686;51.716;7.016;2024-01-07T08:17:33;8.80;;;7.10;;
71836;SDS011;59686;51.716;7.016;2024-01-07T08:19:59;8.13;;;6.63;;
71836;SDS011;59686;51.716;7.016;2024-01-07T08:22:26;9.23;;;6.70;;
71836;SDS011;59686;51.716;7.016;2024-01-07T08:24:52;8.10;;;6.33;;
71836;SDS011;59686;51.716;7.016;2024-01-07T08:27:18;8.37;;;6.70;;
71836;SDS011;59686;51.716;7.016;2024-01-07T08:29:44;7.50;;;6.53;;
71836;SDS011;59686;51.716;7.016;2024-01-07T08:32:10;8.13;;;6.50;;
71836;SDS011;59686;51.716;7.016;2024-01-07T08:37:14;8.57;;;6.30;;
71836;SDS011;59686;51.716;7.016;2024-01-07T08:39:40;8.43;;;6.27;;
71836;SDS011;59686;51.716;7.016;2024-01-07T08:42:06;8.93;;;6.33;;
71836;SDS011;59686;51.716;7.016;2024-01-07T08:44:31;7.80;;;5.83;;
71836;SDS011;59686;51.716;7.016;2024-01-07T08:46:57;6.43;;;5.47;;
71836;SDS011;59686;51.716;7.016;2024-01-07T08:49:25;7.97;;;5.97;;
71836;SDS011;59686;51.716;7.016;2024-01-07T08:51:51;6.60;;;5.67;;
71836;SDS011;59686;51.716;7.016;2024-01-07T08:54:16;6.97;;;5.63;;
71836;SDS011;59686;51.716;7.016;2024-01-07T08:59:33;7.43;;;5.77;;
71836;SDS011;59686;51.716;7.016;2024-01-07T09:01:58;7.07;;;5.77;;
71836;SDS011;59686;51.716;7.016;2024-01-07T09:04:24;7.10;;;5.33;;
71836;SDS011;59686;51.716;7.016;2024-01-07T09:09:21;6.17;;;5.17;;
71836;SDS011;59686;51.716;7.016;2024-01-07T09:11:47;9.70;;;5.57;;
71836;SDS011;59686;51.716;7.016;2024-01-07T09:14:13;6.07;;;4.97;;
71836;SDS011;59686;51.716;7.016;2024-01-07T09:16:39;8.13;;;5.50;;
71836;SDS011;59686;51.716;7.016;2024-01-07T09:19:15;5.93;;;5.20;;
71836;SDS011;59686;51.716;7.016;2024-01-07T09:21:42;6.30;;;4.97;;
71836;SDS011;59686;51.716;7.016;2024-01-07T09:24:08;6.87;;;5.10;;
71836;SDS011;59686;51.716;7.016;2024-01-07T09:26:34;5.90;;;4.80;;
71836;SDS011;59686;51.716;7.016;2024-01-07T09:29:00;6.43;;;5.00;;
71836;SDS011;59686;51.716;7.016;2024-01-07T09:31:26;5.93;;;4.77;;
71836;SDS011;59686;51.716;7.016;2024-01-07T09:33:52;5.43;;;4.60;;
71836;SDS011;59686;51.716;7.016;2024-01-07T09:36:18;7.37;;;4.90;;
71836;SDS011;59686;51.716;7.016;2024-01-07T09:38:44;6.07;;;4.67;;
71836;SDS011;59686;51.716;7.016;2024-01-07T09:41:13;9.10;;;4.97;;
71836;SDS011;59686;51.716;7.016;2024-01-07T09:43:39;9.00;;;5.17;;
71836;SDS011;59686;51.716;7.016;2024-01-07T09:46:05;6.30;;;4.93;;
71836;SDS011;59686;51.716;7.016;2024-01-07T09:48:31;6.90;;;4.87;;
71836;SDS011;59686;51.716;7.016;2024-01-07T09:50:57;6.13;;;4.47;;
71836;SDS011;59686;51.716;7.016;2024-01-07T09:53:25;7.93;;;4.83;;
71836;SDS011;59686;51.716;7.016;2024-01-07T09:56:06;7.00;;;4.60;;
71836;SDS011;59686;51.716;7.016;2024-01-07T09:58:35;6.90;;;4.53;;
71836;SDS011;59686;51.716;7.016;2024-01-07T10:01:02;8.43;;;4.80;;
71836;SDS011;59686;51.716;7.016;2024-01-07T10:03:32;9.53;;;4.60;;
71836;SDS011;59686;51.716;7.016;2024-01-07T10:05:57;6.33;;;4.50;;
71836;SDS011;59686;51.716;7.016;2024-01-07T10:08:23;7.13;;;4.80;;
71836;SDS011;59686;51.716;7.016;2024-01-07T10:10:49;7.13;;;4.60;;
71836;SDS011;59686;51.716;7.016;2024-01-07T10:15:59;6.43;;;4.90;;
71836;SDS011;59686;51.716;7.016;2024-01-07T10:18:25;7.63;;;4.40;;
71836;SDS011;59686;51.716;7.016;2024-01-07T10:20:51;6.80;;;4.60;;
71836;SDS011;59686;51.716;7.016;2024-01-07T10:23:20;6.83;;;4.67;;
71836;SDS011;59686;51.716;7.016;2024-01-07T10:25:46;6.20;;;4.37;;
71836;SDS011;59686;51.716;7.016;2024-01-07T10:28:12;6.77;;;4.73;;
71836;SDS011;59686;51.716;7.016;2024-01-07T10:30:39;5.60;;;4.60;;
71836;SDS011;59686;51.716;7.016;2024-01-07T10:33:05;6.93;;;5.03;;
71836;SDS011;59686;51.716;7.016;2024-01-07T10:35:33;6.43;;;4.73;;
71836;SDS011;59686;51.716;7.016;2024-01-07T10:38:00;6.10;;;4.63;;
71836;SDS011;59686;51.716;7.016;2024-01-07T10:40:37;6.40;;;4.13;;
71836;SDS011;59686;51.716;7.016;2024-01-07T10:43:04;6.83;;;4.70;;
71836;SDS011;59686;51.716;7.016;2024-01-07T10:45:37;5.77;;;4.63;;
71836;SDS011;59686;51.716;7.016;2024-01-07T10:48:03;6.30;;;4.60;;
71836;SDS011;59686;51.716;7.016;2024-01-07T10:50:32;5.97;;;4.00;;
71836;SDS011;59686;51.716;7.016;2024-01-07T10:55:31;6.93;;;4.53;;
71836;SDS011;59686;51.716;7.016;2024-01-07T10:58:01;6.60;;;4.10;;
71836;SDS011;59686;51.716;7.016;2024-01-07T11:00:30;5.03;;;3.90;;
71836;SDS011;59686;51.716;7.016;2024-01-07T11:03:10;5.80;;;3.90;;
71836;SDS011;59686;51.716;7.016;2024-01-07T11:14:52;6.20;;;3.60;;
71836;SDS011;59686;51.716;7.016;2024-01-07T11:17:08;4.30;;;3.63;;
71836;SDS011;59686;51.716;7.016;2024-01-07T11:19:37;5.07;;;3.63;;
71836;SDS011;59686;51.716;7.016;2024-01-07T11:22:31;4.87;;;3.50;;
71836;SDS011;59686;51.716;7.016;2024-01-07T11:24:58;5.13;;;3.73;;
71836;SDS011;59686;51.716;7.016;2024-01-07T11:27:26;3.67;;;3.10;;
71836;SDS011;59686;51.716;7.016;2024-01-07T11:30:03;4.07;;;3.40;;
71836;SDS011;59686;51.716;7.016;2024-01-07T11:32:30;6.13;;;3.77;;
71836;SDS011;59686;51.716;7.016;2024-01-07T11:34:58;3.63;;;3.07;;
71836;SDS011;59686;51.716;7.016;2024-01-07T11:37:39;4.20;;;3.07;;
71836;SDS011;59686;51.716;7.016;2024-01-07T11:40:05;4.03;;;3.13;;
71836;SDS011;59686;51.716;7.016;2024-01-07T11:42:35;4.67;;;3.20;;
71836;SDS011;59686;51.716;7.016;2024-01-07T11:45:03;3.83;;;3.40;;
71836;SDS011;59686;51.716;7.016;2024-01-07T11:47:29;3.50;;;3.00;;
71836;SDS011;59686;51.716;7.016;2024-01-07T11:49:55;5.20;;;3.13;;
71836;SDS011;59686;51.716;7.016;2024-01-07T11:52:21;3.83;;;3.03;;
71836;SDS011;59686;51.716;7.016;2024-01-07T11:54:47;3.57;;;2.87;;
71836;SDS011;59686;51.716;7.016;2024-01-07T11:57:13;4.53;;;3.00;;
71836;SDS011;59686;51.716;7.016;2024-01-07T11:59:39;6.10;;;3.10;;
71836;SDS011;59686;51.716;7.016;2024-01-07T12:02:05;3.90;;;3.00;;
71836;SDS011;59686;51.716;7.016;2024-01-07T12:04:31;3.27;;;2.73;;
71836;SDS011;59686;51.716;7.016;2024-01-07T12:06:57;4.60;;;3.13;;
71836;SDS011;59686;51.716;7.016;2024-01-07T12:09:30;3.80;;;3.10;;
71836;SDS011;59686;51.716;7.016;2024-01-07T12:11:56;3.00;;;2.70;;
71836;SDS011;59686;51.716;7.016;2024-01-07T12:14:22;3.97;;;3.00;;
71836;SDS011;59686;51.716;7.016;2024-01-07T12:16:48;2.80;;;2.50;;
71836;SDS011;59686;51.716;7.016;2024-01-07T12:19:14;3.80;;;3.10;;
71836;SDS011;59686;51.716;7.016;2024-01-07T12:21:39;3.63;;;2.80;;
71836;SDS011;59686;51.716;7.016;2024-01-07T12:24:05;3.13;;;2.70;;
71836;SDS011;59686;51.716;7.016;2024-01-07T12:26:36;3.90;;;3.10;;
71836;SDS011;59686;51.716;7.016;2024-01-07T12:29:02;3.77;;;2.87;;
71836;SDS011;59686;51.716;7.016;2024-01-07T12:31:29;2.87;;;2.60;;
71836;SDS011;59686;51.716;7.016;2024-01-07T12:33:56;3.83;;;2.60;;
71836;SDS011;59686;51.716;7.016;2024-01-07T12:36:23;3.23;;;2.50;;
71836;SDS011;59686;51.716;7.016;2024-01-07T12:38:49;4.00;;;2.50;;
71836;SDS011;59686;51.716;7.016;2024-01-07T12:43:49;2.60;;;2.40;;
71836;SDS011;59686;51.716;7.016;2024-01-07T12:46:15;3.13;;;2.43;;
71836;SDS011;59686;51.716;7.016;2024-01-07T12:48:41;3.10;;;2.60;;
71836;SDS011;59686;51.716;7.016;2024-01-07T12:51:07;3.87;;;2.50;;
71836;SDS011;59686;51.716;7.016;2024-01-07T12:53:33;4.30;;;3.00;;
71836;SDS011;59686;51.716;7.016;2024-01-07T12:56:05;2.47;;;2.27;;
71836;SDS011;59686;51.716;7.016;2024-01-07T12:58:31;3.13;;;2.50;;
71836;SDS011;59686;51.716;7.016;2024-01-07T13:00:57;3.17;;;2.40;;
71836;SDS011;59686;51.716;7.016;2024-01-07T13:03:22;4.37;;;2.77;;
71836;SDS011;59686;51.716;7.016;2024-01-07T13:05:50;4.57;;;2.57;;
71836;SDS011;59686;51.716;7.016;2024-01-07T13:08:16;3.83;;;2.83;;
71836;SDS011;59686;51.716;7.016;2024-01-07T13:10:44;3.00;;;2.43;;
71836;SDS011;59686;51.716;7.016;2024-01-07T13:13:11;2.67;;;2.30;;
71836;SDS011;59686;51.716;7.016;2024-01-07T13:15:37;2.73;;;2.53;;
71836;SDS011;59686;51.716;7.016;2024-01-07T13:18:04;3.13;;;2.50;;
71836;SDS011;59686;51.716;7.016;2024-01-07T13:20:29;3.03;;;2.50;;
71836;SDS011;59686;51.716;7.016;2024-01-07T13:22:55;3.10;;;2.20;;
71836;SDS011;59686;51.716;7.016;2024-01-07T13:25:21;3.40;;;2.37;;
71836;SDS011;59686;51.716;7.016;2024-01-07T13:27:52;4.03;;;2.40;;
71836;SDS011;59686;51.716;7.016;2024-01-07T13:30:18;3.27;;;2.23;;
71836;SDS011;59686;51.716;7.016;2024-01-07T13:32:43;4.20;;;2.70;;
71836;SDS011;59686;51.716;7.016;2024-01-07T13:35:09;3.70;;;2.63;;
71836;SDS011;59686;51.716;7.016;2024-01-07T13:37:36;3.50;;;2.67;;
71836;SDS011;59686;51.716;7.016;2024-01-07T13:40:02;2.60;;;2.30;;
71836;SDS011;59686;51.716;7.016;2024-01-07T13:42:29;5.07;;;2.60;;
71836;SDS011;59686;51.716;7.016;2024-01-07T13:44:54;3.43;;;2.80;;
71836;SDS011;59686;51.716;7.016;2024-01-07T13:47:20;4.10;;;2.23;;
71836;SDS011;59686;51.716;7.016;2024-01-07T13:49:46;3.53;;;2.60;;
71836;SDS011;59686;51.716;7.016;2024-01-07T13:52:12;2.80;;;2.20;;
71836;SDS011;59686;51.716;7.016;2024-01-07T13:54:41;2.30;;;2.10;;
71836;SDS011;59686;51.716;7.016;2024-01-07T13:57:06;3.23;;;2.50;;
71836;SDS011;59686;51.716;7.016;2024-01-07T13:59:32;2.73;;;2.40;;
71836;SDS011;59686;51.716;7.016;2024-01-07T14:01:58;3.20;;;2.50;;
71836;SDS011;59686;51.716;7.016;2024-01-07T14:04:24;4.30;;;2.80;;
71836;SDS011;59686;51.716;7.016;2024-01-07T14:06:54;3.57;;;2.70;;
71836;SDS011;59686;51.716;7.016;2024-01-07T14:09:21;2.60;;;2.20;;
71836;SDS011;59686;51.716;7.016;2024-01-07T14:11:54;2.87;;;2.37;;
71836;SDS011;59686;51.716;7.016;2024-01-07T14:14:19;3.57;;;2.53;;
71836;SDS011;59686;51.716;7.016;2024-01-07T14:16:45;2.40;;;2.20;;
71836;SDS011;59686;51.716;7.016;2024-01-07T14:21:45;3.10;;;2.23;;
71836;SDS011;59686;51.716;7.016;2024-01-07T14:24:11;2.70;;;1.93;;
71836;SDS011;59686;51.716;7.016;2024-01-07T14:26:36;2.47;;;2.23;;
71836;SDS011;59686;51.716;7.016;2024-01-07T14:31:39;2.30;;;2.03;;
71836;SDS011;59686;51.716;7.016;2024-01-07T14:34:05;2.20;;;1.70;;
71836;SDS011;59686;51.716;7.016;2024-01-07T14:36:30;2.40;;;2.20;;
71836;SDS011;59686;51.716;7.016;2024-01-07T14:38:56;2.27;;;1.90;;
71836;SDS011;59686;51.716;7.016;2024-01-07T14:41:22;4.23;;;2.27;;
71836;SDS011;59686;51.716;7.016;2024-01-07T14:43:47;3.23;;;2.30;;
71836;SDS011;59686;51.716;7.016;2024-01-07T14:46:13;2.20;;;2.00;;
71836;SDS011;59686;51.716;7.016;2024-01-07T14:48:39;2.10;;;1.90;;
71836;SDS011;59686;51.716;7.016;2024-01-07T14:51:05;2.40;;;2.20;;
71836;SDS011;59686;51.716;7.016;2024-01-07T14:53:31;2.47;;;2.00;;
71836;SDS011;59686;51.716;7.016;2024-01-07T14:55:57;2.87;;;2.10;;
71836;SDS011;59686;51.716;7.016;2024-01-07T14:58:23;2.40;;;1.80;;
71836;SDS011;59686;51.716;7.016;2024-01-07T15:00:50;2.40;;;2.07;;
71836;SDS011;59686;51.716;7.016;2024-01-07T15:03:27;3.00;;;2.13;;
71836;SDS011;59686;51.716;7.016;2024-01-07T15:05:54;3.50;;;2.20;;
71836;SDS011;59686;51.716;7.016;2024-01-07T15:08:20;2.60;;;2.30;;
71836;SDS011;59686;51.716;7.016;2024-01-07T15:10:46;2.23;;;2.03;;
71836;SDS011;59686;51.716;7.016;2024-01-07T15:13:11;3.47;;;2.37;;
71836;SDS011;59686;51.716;7.016;2024-01-07T15:15:37;9.00;;;3.07;;
71836;SDS011;59686;51.716;7.016;2024-01-07T15:18:03;8.27;;;2.63;;
71836;SDS011;59686;51.716;7.016;2024-01-07T15:20:29;6.97;;;2.40;;